Archival Weather

Salzburg

Salzburg, Austria (LOWS)

Report from: Thursday, September 21, 2023 12:50 AM CEST
Current time: Saturday, March 2, 2024 10:32 AM CET

Current weather – Weather history – Daily summaries
Weather forecast

Temperature17.0°C (62.6°F)
Dew point13.0°C (55.4°F)
Winds 5 kts (2.6 m/s, 5.8 mph) Southeast (140°)
Visibility6.2 mi. (10 km)
Altimeter29.83 in.Hg (1010 mB)
Relative humidity77 %
Density altitude554 ft. (169 m)
Remarks Fully automated report
Flight conditions Visual Meteorological Conditions
Raw dataLOWS 202250Z AUTO 14005KT 9999 NSC 17/13 Q1010
An error has occurred. This application may no longer respond until reloaded. Reload 🗙